createdAt,value
2023-05-17T00:00:55.817Z,76.29
2023-05-17T00:03:22.566Z,76.58
2023-05-17T00:05:49.262Z,76.92
2023-05-17T00:08:16.010Z,76.84
2023-05-17T00:10:43.407Z,76.93
2023-05-17T00:13:10.156Z,77.61
2023-05-17T00:15:36.837Z,77.30
2023-05-17T00:18:03.766Z,77.75
2023-05-17T00:20:30.605Z,78.21
2023-05-17T00:22:57.348Z,77.60
2023-05-17T00:25:24.030Z,77.00
2023-05-17T00:27:50.805Z,78.53
2023-05-17T00:30:17.535Z,79.33
2023-05-17T00:32:46.803Z,77.84
2023-05-17T00:35:13.711Z,78.31
2023-05-17T00:37:40.457Z,78.59
2023-05-17T00:40:08.068Z,78.66
2023-05-17T00:42:34.759Z,78.89
2023-05-17T00:45:01.534Z,79.26
2023-05-17T00:47:28.282Z,80.33
2023-05-17T00:49:55.127Z,79.04
2023-05-17T00:52:21.830Z,79.73
2023-05-17T00:54:48.698Z,80.78
2023-05-17T00:57:16.265Z,80.70
2023-05-17T00:59:45.461Z,79.92
2023-05-17T01:02:12.333Z,81.11
2023-05-17T01:04:39.097Z,79.87
2023-05-17T01:07:05.830Z,80.22
2023-05-17T01:09:33.119Z,80.44
2023-05-17T01:12:24.656Z,80.39
2023-05-17T01:15:06.946Z,79.16
2023-05-17T01:18:07.314Z,80.49
2023-05-17T01:20:47.746Z,81.45
2023-05-17T01:23:38.636Z,82.41
2023-05-17T01:26:18.384Z,82.33
2023-05-17T01:28:52.998Z,82.93
2023-05-17T01:31:21.140Z,82.41
2023-05-17T01:33:48.180Z,83.08
2023-05-17T01:36:15.044Z,85.31
2023-05-17T01:38:41.673Z,86.48
2023-05-17T01:41:16.517Z,85.26
2023-05-17T01:43:57.065Z,83.75
2023-05-17T01:46:32.299Z,84.22
2023-05-17T01:49:37.661Z,84.78
2023-05-17T01:52:26.235Z,85.53
2023-05-17T01:55:10.957Z,84.26
2023-05-17T01:57:38.506Z,83.40
2023-05-17T02:00:25.909Z,83.69
2023-05-17T02:02:52.742Z,83.99
2023-05-17T02:05:19.750Z,84.31
2023-05-17T02:07:46.476Z,84.96
2023-05-17T02:10:13.534Z,84.65
2023-05-17T02:12:41.187Z,84.12
2023-05-17T02:15:11.195Z,84.27
2023-05-17T02:17:39.627Z,83.54
2023-05-17T02:20:11.808Z,83.30
2023-05-17T02:22:39.068Z,83.27
2023-05-17T02:25:07.065Z,83.52
2023-05-17T02:27:33.740Z,83.40
2023-05-17T02:30:02.145Z,83.82
2023-05-17T02:32:29.210Z,84.43
2023-05-17T02:34:56.517Z,84.64
2023-05-17T02:37:23.174Z,85.09
2023-05-17T02:39:49.919Z,87.28
2023-05-17T02:42:16.860Z,86.94
2023-05-17T02:44:43.549Z,88.40
2023-05-17T02:47:10.437Z,87.57
2023-05-17T02:49:37.233Z,87.13
2023-05-17T02:52:04.272Z,88.28
2023-05-17T02:54:30.924Z,88.41
2023-05-17T02:56:57.632Z,88.81
2023-05-17T02:59:24.307Z,87.99
2023-05-17T03:01:51.149Z,88.66
2023-05-17T03:04:20.300Z,89.13
2023-05-17T03:06:47.106Z,89.13
2023-05-17T03:09:13.985Z,89.94
2023-05-17T03:11:40.695Z,90.49
2023-05-17T03:14:07.334Z,89.64
2023-05-17T03:16:34.038Z,89.63
2023-05-17T03:19:00.833Z,90.11
2023-05-17T03:21:27.711Z,89.58
2023-05-17T03:23:54.458Z,89.51
2023-05-17T03:26:21.167Z,88.90
2023-05-17T03:28:47.806Z,88.37
2023-05-17T03:31:14.537Z,88.77
2023-05-17T03:33:41.413Z,88.33
2023-05-17T03:36:08.385Z,88.77
2023-05-17T03:38:35.681Z,89.14
2023-05-17T03:41:03.757Z,87.39
2023-05-17T03:43:30.591Z,88.03
2023-05-17T03:45:57.258Z,88.26
2023-05-17T03:48:23.963Z,87.33
2023-05-17T03:50:50.734Z,88.87
2023-05-17T03:53:17.374Z,87.21
2023-05-17T03:55:44.042Z,86.54
2023-05-17T03:58:10.854Z,87.34
2023-05-17T04:00:37.582Z,88.21
2023-05-17T04:03:05.650Z,87.25
2023-05-17T04:05:32.959Z,87.44
2023-05-17T04:07:59.776Z,87.64
2023-05-17T04:10:26.441Z,87.14
2023-05-17T04:12:53.159Z,87.74
2023-05-17T04:15:20.810Z,88.05
2023-05-17T04:17:48.654Z,87.99
2023-05-17T04:20:15.565Z,87.38
2023-05-17T04:22:42.283Z,88.05
2023-05-17T04:25:09.299Z,88.15
2023-05-17T04:27:35.988Z,87.88
2023-05-17T04:30:02.702Z,87.98
2023-05-17T04:32:30.098Z,87.38
2023-05-17T04:34:56.798Z,87.56
2023-05-17T04:37:23.511Z,88.39
2023-05-17T04:39:50.161Z,88.91
2023-05-17T04:42:17.008Z,88.68
2023-05-17T04:44:43.760Z,87.65
2023-05-17T04:47:10.477Z,88.33
2023-05-17T04:49:37.381Z,87.93
2023-05-17T04:52:06.211Z,87.64
2023-05-17T04:54:33.017Z,86.83
2023-05-17T04:56:59.647Z,87.01
2023-05-17T04:59:26.229Z,86.67
2023-05-17T05:01:52.895Z,87.46
2023-05-17T05:04:19.572Z,86.41
2023-05-17T05:06:46.576Z,86.90
2023-05-17T05:09:13.255Z,87.12
2023-05-17T05:11:39.917Z,87.13
2023-05-17T05:14:06.637Z,87.12
2023-05-17T05:16:33.291Z,87.37
2023-05-17T05:19:00.127Z,86.49
2023-05-17T05:21:26.983Z,86.32
2023-05-17T05:23:53.718Z,86.04
2023-05-17T05:26:20.345Z,85.80
2023-05-17T05:28:47.070Z,86.63
2023-05-17T05:31:13.705Z,86.80
2023-05-17T05:33:40.596Z,86.42
2023-05-17T05:36:07.947Z,86.52
2023-05-17T05:38:34.630Z,85.62
2023-05-17T05:41:01.255Z,85.49
2023-05-17T05:43:27.961Z,84.93
2023-05-17T05:45:54.579Z,85.26
2023-05-17T05:48:21.366Z,85.13
2023-05-17T05:50:48.248Z,84.87
2023-05-17T05:53:19.505Z,84.60
2023-05-17T05:55:46.753Z,84.73
2023-05-17T05:58:13.442Z,84.08
2023-05-17T06:00:40.108Z,83.26
2023-05-17T06:03:06.852Z,83.21
2023-05-17T06:05:33.939Z,82.45
2023-05-17T06:08:00.963Z,81.70
2023-05-17T06:10:27.965Z,81.21
2023-05-17T06:12:54.743Z,80.76
2023-05-17T06:15:21.409Z,81.18
2023-05-17T06:17:48.204Z,78.41
2023-05-17T06:20:16.466Z,78.83
2023-05-17T06:22:44.029Z,77.32
2023-05-17T06:25:11.936Z,76.82
2023-05-17T06:27:41.438Z,76.77
2023-05-17T06:30:08.791Z,77.07
2023-05-17T06:32:35.738Z,77.12
2023-05-17T06:35:03.285Z,75.97
2023-05-17T06:37:29.994Z,75.80
2023-05-17T06:40:16.079Z,75.01
2023-05-17T06:42:55.774Z,74.83
2023-05-17T06:45:22.484Z,74.28
2023-05-17T06:47:49.216Z,73.75
2023-05-17T06:50:16.010Z,72.90
2023-05-17T06:52:42.737Z,73.41
2023-05-17T06:55:09.503Z,73.21
2023-05-17T06:57:36.688Z,72.97
2023-05-17T07:00:06.759Z,70.71
2023-05-17T07:02:34.735Z,70.45
2023-05-17T07:05:01.824Z,70.05
2023-05-17T07:07:28.641Z,69.36
2023-05-17T07:09:55.548Z,69.65
2023-05-17T07:12:22.235Z,68.80
2023-05-17T07:14:48.859Z,68.22
2023-05-17T07:17:15.648Z,68.58
2023-05-17T07:19:42.747Z,69.05
2023-05-17T07:22:10.023Z,67.33
2023-05-17T07:24:36.674Z,67.30
2023-05-17T07:27:03.389Z,67.80
2023-05-17T07:29:30.119Z,67.49
2023-05-17T07:31:56.774Z,67.96
2023-05-17T07:34:23.520Z,66.13
2023-05-17T07:36:50.165Z,65.07
2023-05-17T07:39:16.906Z,63.17
2023-05-17T07:41:43.511Z,62.28
2023-05-17T07:44:10.150Z,61.73
2023-05-17T07:46:37.210Z,61.09
2023-05-17T07:49:04.045Z,60.46
2023-05-17T07:51:31.675Z,60.12
2023-05-17T07:53:58.302Z,58.07
2023-05-17T07:56:24.964Z,57.84
2023-05-17T07:58:51.580Z,56.16
2023-05-17T08:01:18.247Z,55.78
2023-05-17T08:03:48.312Z,54.41
2023-05-17T08:06:16.504Z,55.49
2023-05-17T08:08:44.220Z,56.56
2023-05-17T08:11:14.738Z,57.67
2023-05-17T08:13:41.703Z,57.81
2023-05-17T08:16:14.356Z,59.15
2023-05-17T08:18:43.598Z,59.83
2023-05-17T08:21:11.446Z,59.12
2023-05-17T08:23:38.417Z,59.25
2023-05-17T08:26:05.042Z,58.93
2023-05-17T08:28:32.047Z,58.21
2023-05-17T08:30:58.730Z,57.37
2023-05-17T08:33:26.372Z,57.02
2023-05-17T08:35:57.630Z,57.19
2023-05-17T08:38:24.322Z,55.83
2023-05-17T08:40:59.985Z,54.44
2023-05-17T08:43:28.070Z,52.10
2023-05-17T08:45:57.750Z,50.21
2023-05-17T08:48:31.304Z,50.98
2023-05-17T08:50:58.255Z,50.87
2023-05-17T08:53:25.727Z,50.54
2023-05-17T08:55:57.693Z,50.12
2023-05-17T08:58:29.308Z,48.69
2023-05-17T09:00:57.548Z,49.27
2023-05-17T09:03:25.578Z,51.49
2023-05-17T09:05:53.727Z,50.90
2023-05-17T09:08:22.478Z,51.50
2023-05-17T09:10:50.771Z,52.36
2023-05-17T09:13:17.528Z,53.96
2023-05-17T09:15:47.505Z,53.16
2023-05-17T09:18:17.049Z,53.54
2023-05-17T09:20:51.648Z,52.74
2023-05-17T09:23:21.471Z,51.26
2023-05-17T09:25:49.461Z,51.70
2023-05-17T09:28:19.341Z,51.42
2023-05-17T09:30:49.672Z,51.19
2023-05-17T09:33:18.619Z,50.56
2023-05-17T09:35:45.800Z,50.88
2023-05-17T09:38:16.181Z,48.19
2023-05-17T09:40:47.906Z,49.09
2023-05-17T09:43:16.581Z,47.94
2023-05-17T09:45:43.598Z,48.23
2023-05-17T09:48:18.363Z,47.17
2023-05-17T09:50:52.175Z,47.42
2023-05-17T09:53:40.022Z,46.90
2023-05-17T09:56:07.620Z,47.27
2023-05-17T09:58:37.398Z,48.87
2023-05-17T10:01:06.104Z,49.48
2023-05-17T10:03:35.607Z,48.35
2023-05-17T10:06:19.625Z,48.65
2023-05-17T10:08:57.564Z,48.83
2023-05-17T10:11:34.124Z,49.32
2023-05-17T10:14:22.793Z,49.72
2023-05-17T10:16:51.851Z,49.05
2023-05-17T10:19:21.333Z,49.42
2023-05-17T10:21:50.646Z,48.48
2023-05-17T10:24:17.830Z,47.46
2023-05-17T10:26:45.042Z,46.84
2023-05-17T10:29:11.993Z,45.53
2023-05-17T10:31:43.502Z,45.49
2023-05-17T10:34:11.908Z,46.53
2023-05-17T10:36:41.460Z,48.31
2023-05-17T10:39:08.109Z,47.50
2023-05-17T10:41:36.466Z,47.83
2023-05-17T10:44:05.453Z,49.00
2023-05-17T10:46:32.438Z,47.59
2023-05-17T10:49:01.160Z,47.51
2023-05-17T10:51:33.548Z,46.43
2023-05-17T10:54:13.322Z,46.10
2023-05-17T10:56:49.918Z,46.00
2023-05-17T10:59:25.185Z,46.30
2023-05-17T11:01:58.302Z,46.80
2023-05-17T11:04:27.844Z,45.06
2023-05-17T11:07:15.852Z,45.76
2023-05-17T11:09:43.858Z,43.29
2023-05-17T11:12:12.222Z,44.38
2023-05-17T11:14:45.241Z,45.82
2023-05-17T11:17:19.485Z,45.63
2023-05-17T11:19:55.478Z,43.65
2023-05-17T11:22:26.096Z,41.13
2023-05-17T11:24:56.847Z,42.38
2023-05-17T11:27:28.041Z,43.68
2023-05-17T11:29:55.650Z,40.68
2023-05-17T11:32:29.671Z,38.60
2023-05-17T11:34:59.856Z,37.69
2023-05-17T11:37:27.936Z,41.45
2023-05-17T11:40:08.483Z,42.00
2023-05-17T11:42:39.450Z,42.16
2023-05-17T11:45:07.227Z,42.29
2023-05-17T11:47:38.715Z,43.30
2023-05-17T11:50:06.754Z,41.65
2023-05-17T11:52:34.458Z,40.97
2023-05-17T11:55:01.830Z,40.71
2023-05-17T11:57:32.657Z,40.95
2023-05-17T12:00:05.058Z,41.01
2023-05-17T12:02:32.956Z,41.98
2023-05-17T12:05:00.141Z,42.34
2023-05-17T12:07:27.950Z,40.56
2023-05-17T12:09:54.731Z,39.23
2023-05-17T12:12:21.869Z,39.90
2023-05-17T12:14:48.772Z,38.73
2023-05-17T12:17:38.259Z,38.49
2023-05-17T12:20:09.513Z,38.05
2023-05-17T12:22:51.927Z,37.35
2023-05-17T12:25:25.240Z,38.24
2023-05-17T12:27:52.334Z,39.72
2023-05-17T12:30:19.430Z,38.19
2023-05-17T12:32:47.503Z,39.05
2023-05-17T12:35:14.379Z,38.93
2023-05-17T12:37:41.275Z,36.48
2023-05-17T12:40:08.820Z,36.32
2023-05-17T12:42:35.600Z,37.31
2023-05-17T12:45:02.358Z,37.92
2023-05-17T12:47:32.389Z,37.70
2023-05-17T12:50:00.578Z,39.44
2023-05-17T12:52:33.809Z,40.93
2023-05-17T12:55:03.303Z,39.23
2023-05-17T12:57:30.305Z,37.76
2023-05-17T12:59:57.048Z,37.03
2023-05-17T13:02:23.930Z,38.96
2023-05-17T13:04:50.920Z,36.84
2023-05-17T13:07:24.543Z,36.57
2023-05-17T13:09:51.989Z,37.95
2023-05-17T13:12:23.955Z,37.51
2023-05-17T13:14:53.412Z,37.85
2023-05-17T13:17:39.209Z,37.72
2023-05-17T13:20:10.584Z,38.69
2023-05-17T13:22:41.958Z,36.35
2023-05-17T13:25:08.882Z,36.78
2023-05-17T13:27:35.747Z,36.76
2023-05-17T13:30:02.596Z,36.77
2023-05-17T13:32:29.599Z,36.87
2023-05-17T13:34:56.832Z,36.74
2023-05-17T13:37:23.506Z,37.58
2023-05-17T13:39:50.158Z,37.30
2023-05-17T13:42:17.595Z,36.22
2023-05-17T13:44:44.253Z,36.84
2023-05-17T13:47:11.124Z,37.38
2023-05-17T13:49:37.873Z,38.37
2023-05-17T13:52:08.569Z,39.38
2023-05-17T13:54:36.086Z,38.89
2023-05-17T13:57:02.754Z,38.94
2023-05-17T13:59:29.506Z,38.81
2023-05-17T14:01:56.281Z,38.88
2023-05-17T14:04:22.992Z,38.09
2023-05-17T14:06:51.724Z,38.28
2023-05-17T14:09:20.488Z,39.24
2023-05-17T14:11:47.308Z,39.71
2023-05-17T14:14:13.985Z,38.19
2023-05-17T14:16:41.115Z,38.54
2023-05-17T14:19:07.854Z,39.20
2023-05-17T14:21:34.614Z,39.06
2023-05-17T14:24:01.350Z,39.47
2023-05-17T14:26:28.060Z,39.40
2023-05-17T14:28:54.708Z,38.82
2023-05-17T14:31:21.385Z,38.05
2023-05-17T14:33:48.096Z,37.55
2023-05-17T14:36:14.774Z,38.62
2023-05-17T14:38:41.499Z,38.10
2023-05-17T14:41:08.274Z,38.53
2023-05-17T14:43:34.966Z,36.80
2023-05-17T14:46:01.754Z,36.28
2023-05-17T14:48:28.422Z,35.94
2023-05-17T14:50:55.130Z,37.32
2023-05-17T14:53:23.373Z,38.17
2023-05-17T14:55:50.142Z,38.94
2023-05-17T14:58:17.046Z,39.27
2023-05-17T15:00:48.569Z,39.12
2023-05-17T15:03:19.416Z,39.61
2023-05-17T15:05:56.881Z,40.12
2023-05-17T15:08:24.471Z,39.63
2023-05-17T15:10:51.898Z,39.14
2023-05-17T15:13:18.592Z,39.53
2023-05-17T15:15:45.577Z,40.99
2023-05-17T15:18:13.783Z,40.97
2023-05-17T15:20:42.260Z,41.03
2023-05-17T15:23:09.120Z,41.45
2023-05-17T15:25:35.929Z,41.46
2023-05-17T15:28:02.595Z,41.89
2023-05-17T15:30:29.453Z,41.75
2023-05-17T15:32:59.677Z,41.81
2023-05-17T15:35:27.390Z,41.88
2023-05-17T15:37:54.687Z,42.00
2023-05-17T15:40:21.902Z,41.46
2023-05-17T15:42:50.647Z,41.78
2023-05-17T15:45:17.303Z,42.61
2023-05-17T15:47:44.123Z,41.23
2023-05-17T15:50:11.123Z,41.75
2023-05-17T15:52:39.420Z,42.60
2023-05-17T15:55:06.603Z,42.15
2023-05-17T15:57:33.342Z,41.95
2023-05-17T16:00:00.027Z,42.72
2023-05-17T16:02:26.835Z,42.43
2023-05-17T16:04:53.505Z,42.70
2023-05-17T16:07:20.198Z,42.99
2023-05-17T16:09:46.872Z,42.34
2023-05-17T16:12:13.559Z,41.94
2023-05-17T16:14:40.886Z,40.87
2023-05-17T16:17:07.712Z,40.89
2023-05-17T16:19:34.700Z,41.00
2023-05-17T16:22:02.981Z,41.29
2023-05-17T16:24:29.670Z,42.01
2023-05-17T16:26:56.744Z,41.28
2023-05-17T16:29:23.374Z,41.96
2023-05-17T16:31:51.575Z,41.94
2023-05-17T16:34:18.368Z,42.55
2023-05-17T16:36:47.805Z,42.79
2023-05-17T16:39:14.394Z,42.71
2023-05-17T16:41:41.365Z,42.71
2023-05-17T16:44:08.123Z,41.41
2023-05-17T16:46:34.761Z,42.58
2023-05-17T16:49:01.473Z,42.54
2023-05-17T16:51:28.294Z,41.83
2023-05-17T16:53:55.011Z,42.09
2023-05-17T16:56:22.355Z,42.35
2023-05-17T16:58:49.061Z,42.95
2023-05-17T17:01:16.531Z,42.64
2023-05-17T17:03:43.448Z,42.81
2023-05-17T17:06:10.372Z,42.83
2023-05-17T17:08:38.160Z,43.04
2023-05-17T17:11:04.962Z,42.62
2023-05-17T17:13:32.110Z,42.79
2023-05-17T17:15:59.127Z,43.32
2023-05-17T17:18:26.262Z,42.33
2023-05-17T17:20:53.091Z,42.29
2023-05-17T17:23:19.783Z,42.94
2023-05-17T17:25:46.494Z,43.10
2023-05-17T17:28:13.617Z,42.83
2023-05-17T17:30:40.245Z,43.38
2023-05-17T17:33:07.095Z,44.07
2023-05-17T17:35:33.774Z,43.65
2023-05-17T17:38:01.958Z,44.14
2023-05-17T17:40:28.914Z,44.45
2023-05-17T17:42:55.660Z,45.00
2023-05-17T17:45:22.435Z,44.53
2023-05-17T17:47:49.081Z,45.01
2023-05-17T17:50:15.878Z,45.39
2023-05-17T17:52:42.532Z,45.93
2023-05-17T17:55:10.853Z,45.86
2023-05-17T17:57:37.500Z,46.37
2023-05-17T18:00:04.678Z,46.38
2023-05-17T18:02:31.387Z,46.66
2023-05-17T18:04:58.241Z,47.15
2023-05-17T18:07:25.013Z,46.72
2023-05-17T18:09:52.350Z,46.87
2023-05-17T18:12:19.119Z,47.15
2023-05-17T18:14:45.790Z,46.86
2023-05-17T18:17:12.465Z,47.10
2023-05-17T18:19:39.089Z,47.23
2023-05-17T18:22:06.152Z,47.42
2023-05-17T18:24:34.020Z,47.22
2023-05-17T18:27:00.725Z,47.42
2023-05-17T18:29:27.584Z,47.56
2023-05-17T18:31:55.454Z,47.69
2023-05-17T18:34:22.125Z,48.00
2023-05-17T18:36:48.780Z,48.21
2023-05-17T18:39:15.595Z,48.31
2023-05-17T18:41:42.232Z,48.99
2023-05-17T18:44:08.908Z,48.97
2023-05-17T18:46:35.647Z,49.13
2023-05-17T18:49:02.381Z,49.09
2023-05-17T18:51:29.014Z,49.69
2023-05-17T18:53:55.799Z,50.28
2023-05-17T18:56:23.371Z,50.15
2023-05-17T18:58:53.137Z,50.25
2023-05-17T19:01:20.104Z,50.69
2023-05-17T19:03:47.585Z,50.61
2023-05-17T19:06:14.298Z,51.04
2023-05-17T19:08:41.142Z,51.12
2023-05-17T19:11:08.173Z,51.01
2023-05-17T19:13:34.888Z,52.16
2023-05-17T19:16:03.069Z,52.16
2023-05-17T19:18:30.508Z,52.36
2023-05-17T19:20:57.230Z,52.62
2023-05-17T19:23:23.992Z,52.94
2023-05-17T19:25:51.879Z,53.27
2023-05-17T19:28:18.524Z,53.21
2023-05-17T19:30:45.467Z,53.47
2023-05-17T19:33:12.121Z,53.84
2023-05-17T19:35:41.694Z,53.88
2023-05-17T19:38:09.041Z,53.77
2023-05-17T19:40:35.839Z,54.33
2023-05-17T19:43:02.829Z,54.61
2023-05-17T19:45:29.696Z,54.34
2023-05-17T19:47:56.469Z,55.32
2023-05-17T19:50:24.502Z,54.65
2023-05-17T19:52:51.792Z,55.06
2023-05-17T19:55:22.296Z,55.55
2023-05-17T19:57:49.159Z,54.68
2023-05-17T20:00:17.966Z,55.13
2023-05-17T20:02:47.392Z,55.16
2023-05-17T20:05:14.511Z,56.44
2023-05-17T20:07:41.213Z,55.96
2023-05-17T20:10:08.197Z,56.02
2023-05-17T20:12:35.051Z,56.34
2023-05-17T20:15:01.899Z,56.73
2023-05-17T20:17:29.486Z,56.11
2023-05-17T20:19:56.305Z,56.96
2023-05-17T20:22:23.147Z,57.01
2023-05-17T20:24:50.021Z,56.97
2023-05-17T20:27:16.911Z,57.40
2023-05-17T20:29:43.738Z,56.50
2023-05-17T20:32:10.565Z,57.20
2023-05-17T20:34:37.429Z,57.25
2023-05-17T20:37:04.261Z,57.61
2023-05-17T20:39:31.199Z,58.21
2023-05-17T20:41:58.409Z,58.00
2023-05-17T20:44:26.041Z,59.13
2023-05-17T20:46:54.500Z,58.60
2023-05-17T20:49:21.297Z,59.11
2023-05-17T20:51:48.103Z,60.43
2023-05-17T20:54:14.821Z,60.60
2023-05-17T20:56:41.574Z,60.55
2023-05-17T20:59:08.246Z,60.68
2023-05-17T21:01:35.520Z,61.18
2023-05-17T21:04:02.319Z,61.46
2023-05-17T21:06:31.847Z,62.05
2023-05-17T21:09:02.444Z,62.41
2023-05-17T21:11:29.864Z,62.78
2023-05-17T21:13:59.768Z,62.46
2023-05-17T21:16:26.860Z,62.95
2023-05-17T21:18:53.798Z,61.98
2023-05-17T21:21:21.261Z,62.59
2023-05-17T21:23:48.510Z,63.01
2023-05-17T21:26:15.481Z,63.00
2023-05-17T21:28:42.263Z,63.08
2023-05-17T21:31:09.159Z,64.58
2023-05-17T21:33:35.928Z,64.26
2023-05-17T21:36:02.923Z,64.05
2023-05-17T21:38:29.660Z,64.53
2023-05-17T21:40:56.333Z,64.48
2023-05-17T21:43:23.045Z,65.33
2023-05-17T21:45:49.939Z,66.30
2023-05-17T21:48:16.634Z,66.86
2023-05-17T21:50:43.320Z,67.43
2023-05-17T21:53:10.095Z,68.51
2023-05-17T21:55:56.419Z,66.13
2023-05-17T21:58:23.712Z,67.73
2023-05-17T22:00:50.630Z,67.13
2023-05-17T22:03:17.384Z,67.23
2023-05-17T22:05:44.088Z,67.33
2023-05-17T22:08:10.822Z,67.12
2023-05-17T22:10:37.529Z,67.69
2023-05-17T22:13:06.249Z,67.46
2023-05-17T22:15:33.161Z,68.16
2023-05-17T22:17:59.920Z,68.58
2023-05-17T22:20:29.597Z,68.10
2023-05-17T22:22:56.576Z,68.72
2023-05-17T22:25:23.352Z,68.09
2023-05-17T22:27:50.247Z,68.73
2023-05-17T22:30:17.132Z,68.89
2023-05-17T22:32:43.995Z,68.82
2023-05-17T22:35:11.042Z,68.43
2023-05-17T22:37:37.759Z,68.30
2023-05-17T22:40:06.448Z,69.59
2023-05-17T22:42:33.188Z,69.40
2023-05-17T22:44:59.901Z,68.07
2023-05-17T22:47:26.859Z,70.29
2023-05-17T22:49:53.650Z,70.13
2023-05-17T22:52:20.310Z,70.29
2023-05-17T22:54:47.132Z,70.97
2023-05-17T22:57:14.155Z,70.96
2023-05-17T22:59:44.023Z,71.12
2023-05-17T23:02:12.400Z,70.72
2023-05-17T23:04:40.339Z,71.24
2023-05-17T23:07:09.977Z,70.57
2023-05-17T23:09:40.773Z,70.34
2023-05-17T23:12:08.964Z,71.12
2023-05-17T23:14:36.910Z,71.09
2023-05-17T23:17:04.944Z,70.68
2023-05-17T23:19:32.782Z,71.73
2023-05-17T23:22:06.348Z,71.13
2023-05-17T23:24:38.448Z,71.97
2023-05-17T23:27:10.072Z,72.37
2023-05-17T23:29:37.050Z,73.29
2023-05-17T23:32:03.917Z,73.17
2023-05-17T23:34:30.663Z,72.78
2023-05-17T23:36:57.422Z,72.29
2023-05-17T23:39:24.160Z,71.51
2023-05-17T23:41:53.943Z,72.62
2023-05-17T23:44:20.746Z,72.72
2023-05-17T23:46:47.558Z,73.33
2023-05-17T23:49:14.742Z,72.38
2023-05-17T23:51:41.497Z,72.79
2023-05-17T23:54:08.133Z,72.66
2023-05-17T23:56:34.881Z,73.13
2023-05-17T23:59:02.062Z,72.61
